sensor_id;sensor_type;location;lat;lon;timestamp;P1;durP1;ratioP1;P2;durP2;ratioP2
80936;SDS011;70395;51.382;7.074;2023-07-22T00:00:50;8.37;;;7.07;;
80936;SDS011;70395;51.382;7.074;2023-07-22T00:03:16;10.10;;;7.90;;
80936;SDS011;70395;51.382;7.074;2023-07-22T00:05:42;10.40;;;8.83;;
80936;SDS011;70395;51.382;7.074;2023-07-22T00:08:08;10.53;;;8.67;;
80936;SDS011;70395;51.382;7.074;2023-07-22T00:10:34;11.97;;;9.20;;
80936;SDS011;70395;51.382;7.074;2023-07-22T00:13:00;10.90;;;7.73;;
80936;SDS011;70395;51.382;7.074;2023-07-22T00:15:26;11.77;;;8.57;;
80936;SDS011;70395;51.382;7.074;2023-07-22T00:17:52;10.77;;;8.80;;
80936;SDS011;70395;51.382;7.074;2023-07-22T00:20:18;9.00;;;7.93;;
80936;SDS011;70395;51.382;7.074;2023-07-22T00:22:45;12.03;;;8.47;;
80936;SDS011;70395;51.382;7.074;2023-07-22T00:25:11;9.23;;;8.23;;
80936;SDS011;70395;51.382;7.074;2023-07-22T00:27:38;14.03;;;9.17;;
80936;SDS011;70395;51.382;7.074;2023-07-22T00:30:08;13.43;;;9.13;;
80936;SDS011;70395;51.382;7.074;2023-07-22T00:32:34;11.60;;;8.77;;
80936;SDS011;70395;51.382;7.074;2023-07-22T00:35:03;13.77;;;9.33;;
80936;SDS011;70395;51.382;7.074;2023-07-22T00:37:32;13.53;;;9.97;;
80936;SDS011;70395;51.382;7.074;2023-07-22T00:39:58;10.67;;;8.70;;
80936;SDS011;70395;51.382;7.074;2023-07-22T00:42:24;11.43;;;8.77;;
80936;SDS011;70395;51.382;7.074;2023-07-22T00:44:50;9.53;;;8.03;;
80936;SDS011;70395;51.382;7.074;2023-07-22T00:47:16;10.60;;;8.00;;
80936;SDS011;70395;51.382;7.074;2023-07-22T00:49:43;13.00;;;9.23;;
80936;SDS011;70395;51.382;7.074;2023-07-22T00:52:13;10.80;;;8.00;;
80936;SDS011;70395;51.382;7.074;2023-07-22T00:54:39;9.93;;;8.83;;
80936;SDS011;70395;51.382;7.074;2023-07-22T00:57:06;9.90;;;8.30;;
80936;SDS011;70395;51.382;7.074;2023-07-22T00:59:32;10.37;;;8.67;;
80936;SDS011;70395;51.382;7.074;2023-07-22T01:01:58;9.97;;;8.60;;
80936;SDS011;70395;51.382;7.074;2023-07-22T01:04:23;10.43;;;8.30;;
80936;SDS011;70395;51.382;7.074;2023-07-22T01:06:50;10.13;;;8.40;;
80936;SDS011;70395;51.382;7.074;2023-07-22T01:09:20;9.73;;;8.73;;
80936;SDS011;70395;51.382;7.074;2023-07-22T01:11:46;9.43;;;7.83;;
80936;SDS011;70395;51.382;7.074;2023-07-22T01:14:11;9.93;;;8.63;;
80936;SDS011;70395;51.382;7.074;2023-07-22T01:16:37;10.57;;;8.00;;
80936;SDS011;70395;51.382;7.074;2023-07-22T01:19:04;12.70;;;8.67;;
80936;SDS011;70395;51.382;7.074;2023-07-22T01:21:30;10.73;;;7.17;;
80936;SDS011;70395;51.382;7.074;2023-07-22T01:23:58;10.80;;;8.90;;
80936;SDS011;70395;51.382;7.074;2023-07-22T01:26:24;10.33;;;8.93;;
80936;SDS011;70395;51.382;7.074;2023-07-22T01:28:50;10.20;;;8.03;;
80936;SDS011;70395;51.382;7.074;2023-07-22T01:31:16;10.40;;;8.63;;
80936;SDS011;70395;51.382;7.074;2023-07-22T01:33:42;9.17;;;7.97;;
80936;SDS011;70395;51.382;7.074;2023-07-22T01:36:07;8.97;;;8.00;;
80936;SDS011;70395;51.382;7.074;2023-07-22T01:38:33;8.70;;;7.80;;
80936;SDS011;70395;51.382;7.074;2023-07-22T01:41:00;10.13;;;7.53;;
80936;SDS011;70395;51.382;7.074;2023-07-22T01:43:26;11.60;;;8.33;;
80936;SDS011;70395;51.382;7.074;2023-07-22T01:45:52;9.07;;;7.77;;
80936;SDS011;70395;51.382;7.074;2023-07-22T01:48:18;9.70;;;7.47;;
80936;SDS011;70395;51.382;7.074;2023-07-22T01:50:44;11.40;;;7.70;;
80936;SDS011;70395;51.382;7.074;2023-07-22T01:53:10;10.30;;;7.87;;
80936;SDS011;70395;51.382;7.074;2023-07-22T01:55:35;11.73;;;8.80;;
80936;SDS011;70395;51.382;7.074;2023-07-22T01:58:01;11.03;;;8.10;;
80936;SDS011;70395;51.382;7.074;2023-07-22T02:00:27;10.10;;;8.00;;
80936;SDS011;70395;51.382;7.074;2023-07-22T02:02:53;12.70;;;9.17;;
80936;SDS011;70395;51.382;7.074;2023-07-22T02:05:19;12.37;;;8.63;;
80936;SDS011;70395;51.382;7.074;2023-07-22T02:07:46;12.50;;;9.43;;
80936;SDS011;70395;51.382;7.074;2023-07-22T02:10:11;13.20;;;8.40;;
80936;SDS011;70395;51.382;7.074;2023-07-22T02:12:38;14.67;;;9.43;;
80936;SDS011;70395;51.382;7.074;2023-07-22T02:15:04;13.70;;;9.40;;
80936;SDS011;70395;51.382;7.074;2023-07-22T02:17:30;12.70;;;9.37;;
80936;SDS011;70395;51.382;7.074;2023-07-22T02:19:56;11.43;;;9.43;;
80936;SDS011;70395;51.382;7.074;2023-07-22T02:22:22;13.60;;;9.43;;
80936;SDS011;70395;51.382;7.074;2023-07-22T02:24:48;11.27;;;8.10;;
80936;SDS011;70395;51.382;7.074;2023-07-22T02:27:14;16.47;;;9.67;;
80936;SDS011;70395;51.382;7.074;2023-07-22T02:29:39;12.23;;;9.00;;
80936;SDS011;70395;51.382;7.074;2023-07-22T02:32:05;17.97;;;10.40;;
80936;SDS011;70395;51.382;7.074;2023-07-22T02:34:31;10.47;;;9.10;;
80936;SDS011;70395;51.382;7.074;2023-07-22T02:36:57;11.00;;;9.67;;
80936;SDS011;70395;51.382;7.074;2023-07-22T02:39:23;13.03;;;8.73;;
80936;SDS011;70395;51.382;7.074;2023-07-22T02:41:49;12.20;;;9.63;;
80936;SDS011;70395;51.382;7.074;2023-07-22T02:44:14;12.43;;;8.57;;
80936;SDS011;70395;51.382;7.074;2023-07-22T02:46:40;9.50;;;7.70;;
80936;SDS011;70395;51.382;7.074;2023-07-22T02:49:06;13.13;;;9.50;;
80936;SDS011;70395;51.382;7.074;2023-07-22T02:51:32;13.17;;;9.33;;
80936;SDS011;70395;51.382;7.074;2023-07-22T02:53:58;13.90;;;9.03;;
80936;SDS011;70395;51.382;7.074;2023-07-22T02:56:24;12.03;;;9.67;;
80936;SDS011;70395;51.382;7.074;2023-07-22T02:58:50;14.37;;;9.27;;
80936;SDS011;70395;51.382;7.074;2023-07-22T03:01:15;9.63;;;8.43;;
80936;SDS011;70395;51.382;7.074;2023-07-22T03:03:41;13.77;;;9.43;;
80936;SDS011;70395;51.382;7.074;2023-07-22T03:06:07;10.63;;;8.67;;
80936;SDS011;70395;51.382;7.074;2023-07-22T03:08:34;12.00;;;8.77;;
80936;SDS011;70395;51.382;7.074;2023-07-22T03:11:01;10.80;;;9.00;;
80936;SDS011;70395;51.382;7.074;2023-07-22T03:13:28;9.93;;;7.70;;
80936;SDS011;70395;51.382;7.074;2023-07-22T03:15:54;12.80;;;9.00;;
80936;SDS011;70395;51.382;7.074;2023-07-22T03:18:22;10.70;;;7.70;;
80936;SDS011;70395;51.382;7.074;2023-07-22T03:20:48;10.77;;;7.63;;
80936;SDS011;70395;51.382;7.074;2023-07-22T03:23:14;11.03;;;8.20;;
80936;SDS011;70395;51.382;7.074;2023-07-22T03:25:40;10.03;;;7.77;;
80936;SDS011;70395;51.382;7.074;2023-07-22T03:28:06;11.00;;;7.93;;
80936;SDS011;70395;51.382;7.074;2023-07-22T03:30:32;8.90;;;7.97;;
80936;SDS011;70395;51.382;7.074;2023-07-22T03:32:59;12.20;;;8.30;;
80936;SDS011;70395;51.382;7.074;2023-07-22T03:35:25;11.03;;;7.73;;
80936;SDS011;70395;51.382;7.074;2023-07-22T03:37:52;10.10;;;7.90;;
80936;SDS011;70395;51.382;7.074;2023-07-22T03:40:18;10.83;;;7.00;;
80936;SDS011;70395;51.382;7.074;2023-07-22T03:42:51;11.47;;;7.47;;
80936;SDS011;70395;51.382;7.074;2023-07-22T03:45:19;10.13;;;6.97;;
80936;SDS011;70395;51.382;7.074;2023-07-22T03:47:47;12.33;;;8.17;;
80936;SDS011;70395;51.382;7.074;2023-07-22T03:50:17;9.40;;;7.30;;
80936;SDS011;70395;51.382;7.074;2023-07-22T03:52:43;11.50;;;7.53;;
80936;SDS011;70395;51.382;7.074;2023-07-22T03:55:09;12.37;;;8.67;;
80936;SDS011;70395;51.382;7.074;2023-07-22T03:57:35;8.80;;;7.17;;
80936;SDS011;70395;51.382;7.074;2023-07-22T04:00:01;8.23;;;7.00;;
80936;SDS011;70395;51.382;7.074;2023-07-22T04:02:31;9.50;;;6.80;;
80936;SDS011;70395;51.382;7.074;2023-07-22T04:04:56;8.80;;;7.23;;
80936;SDS011;70395;51.382;7.074;2023-07-22T04:07:22;10.60;;;7.80;;
80936;SDS011;70395;51.382;7.074;2023-07-22T04:09:48;9.97;;;7.50;;
80936;SDS011;70395;51.382;7.074;2023-07-22T04:12:14;8.90;;;7.00;;
80936;SDS011;70395;51.382;7.074;2023-07-22T04:14:40;10.40;;;7.63;;
80936;SDS011;70395;51.382;7.074;2023-07-22T04:17:09;7.97;;;6.83;;
80936;SDS011;70395;51.382;7.074;2023-07-22T04:19:34;9.47;;;7.60;;
80936;SDS011;70395;51.382;7.074;2023-07-22T04:22:01;10.67;;;6.90;;
80936;SDS011;70395;51.382;7.074;2023-07-22T04:24:29;9.73;;;7.93;;
80936;SDS011;70395;51.382;7.074;2023-07-22T04:26:56;8.53;;;6.63;;
80936;SDS011;70395;51.382;7.074;2023-07-22T04:29:22;9.43;;;6.50;;
80936;SDS011;70395;51.382;7.074;2023-07-22T04:31:48;11.97;;;6.70;;
80936;SDS011;70395;51.382;7.074;2023-07-22T04:34:14;7.57;;;6.40;;
80936;SDS011;70395;51.382;7.074;2023-07-22T04:36:40;7.50;;;5.60;;
80936;SDS011;70395;51.382;7.074;2023-07-22T04:39:05;7.90;;;6.60;;
80936;SDS011;70395;51.382;7.074;2023-07-22T04:41:32;8.90;;;6.60;;
80936;SDS011;70395;51.382;7.074;2023-07-22T04:43:58;10.40;;;6.40;;
80936;SDS011;70395;51.382;7.074;2023-07-22T04:46:27;6.27;;;5.50;;
80936;SDS011;70395;51.382;7.074;2023-07-22T04:48:56;11.50;;;6.80;;
80936;SDS011;70395;51.382;7.074;2023-07-22T04:51:25;7.50;;;6.70;;
80936;SDS011;70395;51.382;7.074;2023-07-22T04:53:51;8.50;;;6.40;;
80936;SDS011;70395;51.382;7.074;2023-07-22T04:56:17;7.53;;;6.73;;
80936;SDS011;70395;51.382;7.074;2023-07-22T04:58:43;7.20;;;6.47;;
80936;SDS011;70395;51.382;7.074;2023-07-22T05:01:09;7.80;;;6.93;;
80936;SDS011;70395;51.382;7.074;2023-07-22T05:03:35;10.43;;;7.60;;
80936;SDS011;70395;51.382;7.074;2023-07-22T05:06:00;9.50;;;6.80;;
80936;SDS011;70395;51.382;7.074;2023-07-22T05:08:27;7.27;;;6.50;;
80936;SDS011;70395;51.382;7.074;2023-07-22T05:10:52;10.20;;;6.43;;
80936;SDS011;70395;51.382;7.074;2023-07-22T05:13:18;10.47;;;7.40;;
80936;SDS011;70395;51.382;7.074;2023-07-22T05:15:44;8.70;;;6.60;;
80936;SDS011;70395;51.382;7.074;2023-07-22T05:18:10;10.20;;;7.17;;
80936;SDS011;70395;51.382;7.074;2023-07-22T05:20:37;10.00;;;7.07;;
80936;SDS011;70395;51.382;7.074;2023-07-22T05:23:04;8.83;;;7.33;;
80936;SDS011;70395;51.382;7.074;2023-07-22T05:25:30;7.23;;;6.53;;
80936;SDS011;70395;51.382;7.074;2023-07-22T05:27:55;8.10;;;6.50;;
80936;SDS011;70395;51.382;7.074;2023-07-22T05:30:21;8.40;;;6.70;;
80936;SDS011;70395;51.382;7.074;2023-07-22T05:32:47;9.90;;;7.50;;
80936;SDS011;70395;51.382;7.074;2023-07-22T05:35:16;8.80;;;6.60;;
80936;SDS011;70395;51.382;7.074;2023-07-22T05:37:42;8.60;;;6.80;;
80936;SDS011;70395;51.382;7.074;2023-07-22T05:40:08;12.00;;;7.63;;
80936;SDS011;70395;51.382;7.074;2023-07-22T05:42:34;8.90;;;8.00;;
80936;SDS011;70395;51.382;7.074;2023-07-22T05:45:01;10.60;;;7.10;;
80936;SDS011;70395;51.382;7.074;2023-07-22T05:47:28;8.70;;;7.80;;
80936;SDS011;70395;51.382;7.074;2023-07-22T05:49:54;8.40;;;7.40;;
80936;SDS011;70395;51.382;7.074;2023-07-22T05:52:20;8.23;;;6.63;;
80936;SDS011;70395;51.382;7.074;2023-07-22T05:54:46;9.53;;;7.23;;
80936;SDS011;70395;51.382;7.074;2023-07-22T05:57:11;12.13;;;7.77;;
80936;SDS011;70395;51.382;7.074;2023-07-22T05:59:37;8.80;;;7.20;;
80936;SDS011;70395;51.382;7.074;2023-07-22T06:02:04;9.57;;;7.63;;
80936;SDS011;70395;51.382;7.074;2023-07-22T06:04:31;12.03;;;8.70;;
80936;SDS011;70395;51.382;7.074;2023-07-22T06:06:57;10.00;;;8.17;;
80936;SDS011;70395;51.382;7.074;2023-07-22T06:09:23;7.67;;;6.87;;
80936;SDS011;70395;51.382;7.074;2023-07-22T06:11:49;9.13;;;7.40;;
80936;SDS011;70395;51.382;7.074;2023-07-22T06:14:15;8.80;;;7.20;;
80936;SDS011;70395;51.382;7.074;2023-07-22T06:16:40;9.70;;;7.77;;
80936;SDS011;70395;51.382;7.074;2023-07-22T06:19:06;9.77;;;8.33;;
80936;SDS011;70395;51.382;7.074;2023-07-22T06:21:32;9.33;;;7.30;;
80936;SDS011;70395;51.382;7.074;2023-07-22T06:23:58;11.33;;;6.67;;
80936;SDS011;70395;51.382;7.074;2023-07-22T06:26:23;9.83;;;7.77;;
80936;SDS011;70395;51.382;7.074;2023-07-22T06:28:49;10.20;;;7.37;;
80936;SDS011;70395;51.382;7.074;2023-07-22T06:31:15;10.23;;;7.37;;
80936;SDS011;70395;51.382;7.074;2023-07-22T06:33:42;11.10;;;7.90;;
80936;SDS011;70395;51.382;7.074;2023-07-22T06:36:07;11.23;;;8.73;;
80936;SDS011;70395;51.382;7.074;2023-07-22T06:38:33;9.43;;;7.43;;
80936;SDS011;70395;51.382;7.074;2023-07-22T06:40:59;11.00;;;7.90;;
80936;SDS011;70395;51.382;7.074;2023-07-22T06:43:25;10.10;;;8.10;;
80936;SDS011;70395;51.382;7.074;2023-07-22T06:45:50;9.50;;;7.90;;
80936;SDS011;70395;51.382;7.074;2023-07-22T06:48:16;10.47;;;7.57;;
80936;SDS011;70395;51.382;7.074;2023-07-22T06:50:48;8.20;;;7.17;;
80936;SDS011;70395;51.382;7.074;2023-07-22T06:53:15;10.70;;;7.27;;
80936;SDS011;70395;51.382;7.074;2023-07-22T06:55:50;10.03;;;7.67;;
80936;SDS011;70395;51.382;7.074;2023-07-22T06:58:18;9.00;;;7.70;;
80936;SDS011;70395;51.382;7.074;2023-07-22T07:00:55;9.90;;;7.57;;
80936;SDS011;70395;51.382;7.074;2023-07-22T07:03:21;9.10;;;7.40;;
80936;SDS011;70395;51.382;7.074;2023-07-22T07:05:51;9.13;;;7.27;;
80936;SDS011;70395;51.382;7.074;2023-07-22T07:08:21;10.23;;;8.50;;
80936;SDS011;70395;51.382;7.074;2023-07-22T07:10:49;8.60;;;7.47;;
80936;SDS011;70395;51.382;7.074;2023-07-22T07:13:16;8.80;;;7.90;;
80936;SDS011;70395;51.382;7.074;2023-07-22T07:15:45;9.97;;;8.47;;
80936;SDS011;70395;51.382;7.074;2023-07-22T07:18:15;9.20;;;8.20;;
80936;SDS011;70395;51.382;7.074;2023-07-22T07:20:42;9.03;;;7.57;;
80936;SDS011;70395;51.382;7.074;2023-07-22T07:23:08;10.10;;;7.90;;
80936;SDS011;70395;51.382;7.074;2023-07-22T07:25:34;12.43;;;8.70;;
80936;SDS011;70395;51.382;7.074;2023-07-22T07:27:59;9.03;;;8.13;;
80936;SDS011;70395;51.382;7.074;2023-07-22T07:30:25;8.50;;;7.60;;
80936;SDS011;70395;51.382;7.074;2023-07-22T07:32:51;8.93;;;7.87;;
80936;SDS011;70395;51.382;7.074;2023-07-22T07:35:17;10.07;;;7.50;;
80936;SDS011;70395;51.382;7.074;2023-07-22T07:37:42;12.20;;;8.77;;
80936;SDS011;70395;51.382;7.074;2023-07-22T07:40:08;8.73;;;7.47;;
80936;SDS011;70395;51.382;7.074;2023-07-22T07:42:35;12.70;;;8.40;;
80936;SDS011;70395;51.382;7.074;2023-07-22T07:45:00;10.37;;;7.20;;
80936;SDS011;70395;51.382;7.074;2023-07-22T07:47:26;8.30;;;7.33;;
80936;SDS011;70395;51.382;7.074;2023-07-22T07:49:52;11.67;;;8.17;;
80936;SDS011;70395;51.382;7.074;2023-07-22T07:52:18;10.57;;;8.70;;
80936;SDS011;70395;51.382;7.074;2023-07-22T07:54:44;11.80;;;8.80;;
80936;SDS011;70395;51.382;7.074;2023-07-22T07:57:10;11.00;;;8.43;;
80936;SDS011;70395;51.382;7.074;2023-07-22T07:59:35;9.37;;;8.40;;
80936;SDS011;70395;51.382;7.074;2023-07-22T08:02:01;9.33;;;7.87;;
80936;SDS011;70395;51.382;7.074;2023-07-22T08:04:29;9.80;;;8.47;;
80936;SDS011;70395;51.382;7.074;2023-07-22T08:06:55;9.50;;;8.57;;
80936;SDS011;70395;51.382;7.074;2023-07-22T08:09:20;10.77;;;9.27;;
80936;SDS011;70395;51.382;7.074;2023-07-22T08:11:46;11.63;;;8.47;;
80936;SDS011;70395;51.382;7.074;2023-07-22T08:14:12;9.90;;;8.90;;
80936;SDS011;70395;51.382;7.074;2023-07-22T08:16:39;11.50;;;9.20;;
80936;SDS011;70395;51.382;7.074;2023-07-22T08:19:04;9.63;;;8.63;;
80936;SDS011;70395;51.382;7.074;2023-07-22T08:21:30;11.97;;;8.23;;
80936;SDS011;70395;51.382;7.074;2023-07-22T08:23:56;11.00;;;8.77;;
80936;SDS011;70395;51.382;7.074;2023-07-22T08:26:22;8.73;;;7.73;;
80936;SDS011;70395;51.382;7.074;2023-07-22T08:28:48;10.87;;;9.20;;
80936;SDS011;70395;51.382;7.074;2023-07-22T08:31:14;9.40;;;8.40;;
80936;SDS011;70395;51.382;7.074;2023-07-22T08:33:40;9.03;;;8.10;;
80936;SDS011;70395;51.382;7.074;2023-07-22T08:36:06;11.17;;;8.90;;
80936;SDS011;70395;51.382;7.074;2023-07-22T08:38:32;12.00;;;9.73;;
80936;SDS011;70395;51.382;7.074;2023-07-22T08:40:58;10.50;;;9.40;;
80936;SDS011;70395;51.382;7.074;2023-07-22T08:43:23;9.80;;;8.43;;
80936;SDS011;70395;51.382;7.074;2023-07-22T08:45:52;10.63;;;7.83;;
80936;SDS011;70395;51.382;7.074;2023-07-22T08:48:19;9.13;;;8.00;;
80936;SDS011;70395;51.382;7.074;2023-07-22T08:50:53;12.33;;;8.70;;
80936;SDS011;70395;51.382;7.074;2023-07-22T08:53:29;10.47;;;8.73;;
80936;SDS011;70395;51.382;7.074;2023-07-22T08:55:55;10.23;;;8.40;;
80936;SDS011;70395;51.382;7.074;2023-07-22T08:58:21;13.50;;;8.40;;
80936;SDS011;70395;51.382;7.074;2023-07-22T09:00:50;12.80;;;8.23;;
80936;SDS011;70395;51.382;7.074;2023-07-22T09:03:18;10.40;;;7.80;;
80936;SDS011;70395;51.382;7.074;2023-07-22T09:05:44;11.23;;;7.77;;
80936;SDS011;70395;51.382;7.074;2023-07-22T09:08:11;9.43;;;7.50;;
80936;SDS011;70395;51.382;7.074;2023-07-22T09:10:37;7.90;;;7.10;;
80936;SDS011;70395;51.382;7.074;2023-07-22T09:13:04;7.80;;;6.50;;
80936;SDS011;70395;51.382;7.074;2023-07-22T09:15:34;7.13;;;5.90;;
80936;SDS011;70395;51.382;7.074;2023-07-22T09:18:01;6.83;;;5.50;;
80936;SDS011;70395;51.382;7.074;2023-07-22T09:20:28;7.73;;;6.93;;
80936;SDS011;70395;51.382;7.074;2023-07-22T09:22:55;7.17;;;6.43;;
80936;SDS011;70395;51.382;7.074;2023-07-22T09:25:22;7.27;;;6.40;;
80936;SDS011;70395;51.382;7.074;2023-07-22T09:27:51;10.00;;;6.73;;
80936;SDS011;70395;51.382;7.074;2023-07-22T09:30:35;7.60;;;6.80;;
80936;SDS011;70395;51.382;7.074;2023-07-22T09:33:04;12.00;;;8.40;;
80936;SDS011;70395;51.382;7.074;2023-07-22T09:35:52;7.27;;;5.87;;
80936;SDS011;70395;51.382;7.074;2023-07-22T09:38:23;8.13;;;6.67;;
80936;SDS011;70395;51.382;7.074;2023-07-22T09:40:50;8.47;;;6.87;;
80936;SDS011;70395;51.382;7.074;2023-07-22T09:43:17;8.53;;;6.10;;
80936;SDS011;70395;51.382;7.074;2023-07-22T09:45:46;8.27;;;6.00;;
80936;SDS011;70395;51.382;7.074;2023-07-22T09:48:13;6.97;;;6.37;;
80936;SDS011;70395;51.382;7.074;2023-07-22T09:50:39;6.73;;;5.80;;
80936;SDS011;70395;51.382;7.074;2023-07-22T09:53:06;6.03;;;5.33;;
80936;SDS011;70395;51.382;7.074;2023-07-22T09:55:32;7.27;;;6.07;;
80936;SDS011;70395;51.382;7.074;2023-07-22T09:58:00;6.70;;;6.10;;
80936;SDS011;70395;51.382;7.074;2023-07-22T10:00:29;9.07;;;5.70;;
80936;SDS011;70395;51.382;7.074;2023-07-22T10:03:00;8.63;;;6.27;;
80936;SDS011;70395;51.382;7.074;2023-07-22T10:05:33;6.50;;;5.63;;
80936;SDS011;70395;51.382;7.074;2023-07-22T10:08:01;7.13;;;5.40;;
80936;SDS011;70395;51.382;7.074;2023-07-22T10:10:37;7.60;;;4.97;;
80936;SDS011;70395;51.382;7.074;2023-07-22T10:13:04;6.73;;;5.23;;
80936;SDS011;70395;51.382;7.074;2023-07-22T10:15:31;7.20;;;5.20;;
80936;SDS011;70395;51.382;7.074;2023-07-22T10:17:59;6.37;;;4.90;;
80936;SDS011;70395;51.382;7.074;2023-07-22T10:20:28;6.00;;;5.10;;
80936;SDS011;70395;51.382;7.074;2023-07-22T10:22:55;5.23;;;4.73;;
80936;SDS011;70395;51.382;7.074;2023-07-22T10:25:21;4.97;;;4.47;;
80936;SDS011;70395;51.382;7.074;2023-07-22T10:27:48;5.37;;;4.83;;
80936;SDS011;70395;51.382;7.074;2023-07-22T10:30:17;10.83;;;5.30;;
80936;SDS011;70395;51.382;7.074;2023-07-22T10:32:44;5.93;;;5.20;;
80936;SDS011;70395;51.382;7.074;2023-07-22T10:38:15;5.60;;;5.10;;
80936;SDS011;70395;51.382;7.074;2023-07-22T10:40:45;6.33;;;4.93;;
80936;SDS011;70395;51.382;7.074;2023-07-22T10:43:15;4.70;;;3.90;;
80936;SDS011;70395;51.382;7.074;2023-07-22T10:45:43;4.60;;;4.20;;
80936;SDS011;70395;51.382;7.074;2023-07-22T10:48:16;3.93;;;3.60;;
80936;SDS011;70395;51.382;7.074;2023-07-22T10:50:50;4.07;;;3.70;;
80936;SDS011;70395;51.382;7.074;2023-07-22T11:01:39;3.40;;;2.70;;
80936;SDS011;70395;51.382;7.074;2023-07-22T11:11:53;3.33;;;2.97;;
80936;SDS011;70395;51.382;7.074;2023-07-22T11:14:27;5.07;;;3.13;;
80936;SDS011;70395;51.382;7.074;2023-07-22T11:16:59;3.67;;;2.93;;
80936;SDS011;70395;51.382;7.074;2023-07-22T11:19:29;3.43;;;3.13;;
80936;SDS011;70395;51.382;7.074;2023-07-22T11:21:55;4.30;;;3.37;;
80936;SDS011;70395;51.382;7.074;2023-07-22T11:24:22;4.83;;;3.37;;
80936;SDS011;70395;51.382;7.074;2023-07-22T11:26:49;5.10;;;3.30;;
80936;SDS011;70395;51.382;7.074;2023-07-22T11:29:17;2.93;;;2.63;;
80936;SDS011;70395;51.382;7.074;2023-07-22T11:31:44;3.63;;;2.57;;
80936;SDS011;70395;51.382;7.074;2023-07-22T11:34:13;3.03;;;2.40;;
80936;SDS011;70395;51.382;7.074;2023-07-22T11:36:41;3.73;;;2.50;;
80936;SDS011;70395;51.382;7.074;2023-07-22T11:39:09;3.93;;;2.90;;
80936;SDS011;70395;51.382;7.074;2023-07-22T11:41:44;3.53;;;3.10;;
80936;SDS011;70395;51.382;7.074;2023-07-22T11:44:13;3.23;;;2.83;;
80936;SDS011;70395;51.382;7.074;2023-07-22T11:49:35;6.13;;;3.03;;
80936;SDS011;70395;51.382;7.074;2023-07-22T11:52:10;3.17;;;2.77;;
80936;SDS011;70395;51.382;7.074;2023-07-22T11:54:42;4.47;;;2.60;;
80936;SDS011;70395;51.382;7.074;2023-07-22T11:57:17;6.63;;;3.40;;
80936;SDS011;70395;51.382;7.074;2023-07-22T12:02:19;3.63;;;2.83;;
80936;SDS011;70395;51.382;7.074;2023-07-22T12:04:58;5.30;;;2.73;;
80936;SDS011;70395;51.382;7.074;2023-07-22T12:07:36;2.77;;;2.40;;
80936;SDS011;70395;51.382;7.074;2023-07-22T12:10:04;4.30;;;2.97;;
80936;SDS011;70395;51.382;7.074;2023-07-22T12:17:56;2.73;;;2.13;;
80936;SDS011;70395;51.382;7.074;2023-07-22T12:22:54;2.90;;;2.20;;
80936;SDS011;70395;51.382;7.074;2023-07-22T12:25:21;2.53;;;1.90;;
80936;SDS011;70395;51.382;7.074;2023-07-22T12:27:47;3.03;;;2.13;;
80936;SDS011;70395;51.382;7.074;2023-07-22T12:30:15;3.50;;;2.20;;
80936;SDS011;70395;51.382;7.074;2023-07-22T12:32:41;3.93;;;2.20;;
80936;SDS011;70395;51.382;7.074;2023-07-22T12:35:07;2.90;;;2.10;;
80936;SDS011;70395;51.382;7.074;2023-07-22T12:37:34;2.47;;;2.10;;
80936;SDS011;70395;51.382;7.074;2023-07-22T12:40:00;3.00;;;2.33;;
80936;SDS011;70395;51.382;7.074;2023-07-22T12:42:26;2.90;;;2.13;;
80936;SDS011;70395;51.382;7.074;2023-07-22T12:44:51;3.50;;;2.63;;
80936;SDS011;70395;51.382;7.074;2023-07-22T12:47:18;4.87;;;2.87;;
80936;SDS011;70395;51.382;7.074;2023-07-22T12:49:43;5.37;;;3.10;;
80936;SDS011;70395;51.382;7.074;2023-07-22T12:52:09;6.07;;;3.93;;
80936;SDS011;70395;51.382;7.074;2023-07-22T12:54:36;4.03;;;3.00;;
80936;SDS011;70395;51.382;7.074;2023-07-22T12:57:01;5.37;;;2.50;;
80936;SDS011;70395;51.382;7.074;2023-07-22T12:59:27;6.17;;;3.30;;
80936;SDS011;70395;51.382;7.074;2023-07-22T13:01:53;4.80;;;3.80;;
80936;SDS011;70395;51.382;7.074;2023-07-22T13:04:19;2.87;;;2.60;;
80936;SDS011;70395;51.382;7.074;2023-07-22T13:06:45;2.97;;;2.67;;
80936;SDS011;70395;51.382;7.074;2023-07-22T13:09:11;3.77;;;3.17;;
80936;SDS011;70395;51.382;7.074;2023-07-22T13:11:37;3.80;;;3.40;;
80936;SDS011;70395;51.382;7.074;2023-07-22T13:14:03;5.30;;;3.40;;
80936;SDS011;70395;51.382;7.074;2023-07-22T13:16:28;4.50;;;3.37;;
80936;SDS011;70395;51.382;7.074;2023-07-22T13:18:54;3.80;;;2.73;;
80936;SDS011;70395;51.382;7.074;2023-07-22T13:21:20;3.47;;;3.17;;
80936;SDS011;70395;51.382;7.074;2023-07-22T13:23:46;3.53;;;3.23;;
80936;SDS011;70395;51.382;7.074;2023-07-22T13:26:12;3.30;;;3.00;;
80936;SDS011;70395;51.382;7.074;2023-07-22T13:28:37;5.40;;;3.37;;
80936;SDS011;70395;51.382;7.074;2023-07-22T13:31:03;5.23;;;3.50;;
80936;SDS011;70395;51.382;7.074;2023-07-22T13:33:29;4.77;;;3.63;;
80936;SDS011;70395;51.382;7.074;2023-07-22T13:35:54;3.87;;;3.17;;
80936;SDS011;70395;51.382;7.074;2023-07-22T13:38:21;3.33;;;2.73;;
80936;SDS011;70395;51.382;7.074;2023-07-22T13:40:47;5.23;;;3.53;;
80936;SDS011;70395;51.382;7.074;2023-07-22T13:43:13;5.43;;;3.10;;
80936;SDS011;70395;51.382;7.074;2023-07-22T13:45:39;3.20;;;2.90;;
80936;SDS011;70395;51.382;7.074;2023-07-22T13:48:06;3.70;;;2.93;;
80936;SDS011;70395;51.382;7.074;2023-07-22T13:50:31;4.17;;;3.07;;
80936;SDS011;70395;51.382;7.074;2023-07-22T13:52:57;4.53;;;3.70;;
80936;SDS011;70395;51.382;7.074;2023-07-22T13:55:23;3.97;;;3.03;;
80936;SDS011;70395;51.382;7.074;2023-07-22T13:57:49;3.50;;;3.07;;
80936;SDS011;70395;51.382;7.074;2023-07-22T14:00:15;3.23;;;2.70;;
80936;SDS011;70395;51.382;7.074;2023-07-22T14:02:41;3.37;;;2.97;;
80936;SDS011;70395;51.382;7.074;2023-07-22T14:05:07;4.30;;;2.77;;
80936;SDS011;70395;51.382;7.074;2023-07-22T14:07:34;4.60;;;2.50;;
80936;SDS011;70395;51.382;7.074;2023-07-22T14:10:01;4.70;;;3.10;;
80936;SDS011;70395;51.382;7.074;2023-07-22T14:12:29;3.17;;;2.80;;
80936;SDS011;70395;51.382;7.074;2023-07-22T14:14:55;5.93;;;3.30;;
80936;SDS011;70395;51.382;7.074;2023-07-22T14:17:21;3.87;;;2.80;;
80936;SDS011;70395;51.382;7.074;2023-07-22T14:19:46;3.63;;;3.23;;
80936;SDS011;70395;51.382;7.074;2023-07-22T14:22:12;3.13;;;2.83;;
80936;SDS011;70395;51.382;7.074;2023-07-22T14:24:38;5.60;;;2.97;;
80936;SDS011;70395;51.382;7.074;2023-07-22T14:27:04;3.00;;;2.70;;
80936;SDS011;70395;51.382;7.074;2023-07-22T14:29:30;5.50;;;3.20;;
80936;SDS011;70395;51.382;7.074;2023-07-22T14:31:56;4.20;;;3.07;;
80936;SDS011;70395;51.382;7.074;2023-07-22T14:34:23;4.73;;;3.00;;
80936;SDS011;70395;51.382;7.074;2023-07-22T14:36:49;4.37;;;3.27;;
80936;SDS011;70395;51.382;7.074;2023-07-22T14:39:15;3.53;;;3.10;;
80936;SDS011;70395;51.382;7.074;2023-07-22T14:41:42;7.33;;;3.30;;
80936;SDS011;70395;51.382;7.074;2023-07-22T14:44:08;4.30;;;3.50;;
80936;SDS011;70395;51.382;7.074;2023-07-22T14:46:35;4.90;;;3.57;;
80936;SDS011;70395;51.382;7.074;2023-07-22T14:49:01;3.50;;;3.20;;
80936;SDS011;70395;51.382;7.074;2023-07-22T14:51:29;4.00;;;3.23;;
80936;SDS011;70395;51.382;7.074;2023-07-22T14:53:54;5.20;;;3.67;;
80936;SDS011;70395;51.382;7.074;2023-07-22T14:56:20;4.97;;;3.47;;
80936;SDS011;70395;51.382;7.074;2023-07-22T14:58:46;4.30;;;3.40;;
80936;SDS011;70395;51.382;7.074;2023-07-22T15:01:14;3.90;;;3.30;;
80936;SDS011;70395;51.382;7.074;2023-07-22T15:03:39;5.83;;;3.73;;
80936;SDS011;70395;51.382;7.074;2023-07-22T15:06:05;3.67;;;3.37;;
80936;SDS011;70395;51.382;7.074;2023-07-22T15:08:31;4.93;;;3.70;;
80936;SDS011;70395;51.382;7.074;2023-07-22T15:10:57;6.00;;;3.50;;
80936;SDS011;70395;51.382;7.074;2023-07-22T15:13:23;4.67;;;3.20;;